createdAt,value
2022-08-28T00:02:25.579Z,102137.22
2022-08-28T00:04:52.402Z,102135.41
2022-08-28T00:07:19.350Z,102139.84
2022-08-28T00:09:45.842Z,102130.41
2022-08-28T00:12:12.471Z,102131.75
2022-08-28T00:14:39.530Z,102136.22
2022-08-28T00:17:06.253Z,102132.28
2022-08-28T00:19:38.523Z,102133.66
2022-08-28T00:22:05.864Z,102128.16
2022-08-28T00:24:32.366Z,102132.88
2022-08-28T00:27:17.409Z,102128.94
2022-08-28T00:29:45.100Z,102136.31
2022-08-28T00:32:11.732Z,102135.28
2022-08-28T00:34:38.930Z,102132.41
2022-08-28T00:37:06.085Z,102132.16
2022-08-28T00:39:32.573Z,102132.75
2022-08-28T00:41:59.135Z,102129.59
2022-08-28T00:44:27.920Z,102137.00
2022-08-28T00:46:57.634Z,102137.53
2022-08-28T00:49:29.226Z,102138.09
2022-08-28T00:52:09.055Z,102138.09
2022-08-28T00:54:45.395Z,102129.69
2022-08-28T00:57:36.270Z,102137.59
2022-08-28T01:00:06.410Z,102126.56
2022-08-28T01:02:33.019Z,102133.13
2022-08-28T01:04:59.671Z,102133.13
2022-08-28T01:07:26.522Z,102129.22
2022-08-28T01:09:54.960Z,102133.72
2022-08-28T01:12:26.199Z,102132.13
2022-08-28T01:14:58.735Z,102125.59
2022-08-28T01:17:28.734Z,102136.38
2022-08-28T01:20:00.874Z,102133.47
2022-08-28T01:22:49.961Z,102138.22
2022-08-28T01:25:23.447Z,102140.06
2022-08-28T01:27:51.649Z,102130.38
2022-08-28T01:30:21.514Z,102134.56
2022-08-28T01:32:52.100Z,102135.63
2022-08-28T01:35:26.288Z,102147.72
2022-08-28T01:37:54.763Z,102138.81
2022-08-28T01:40:27.796Z,102143.28
2022-08-28T01:42:55.090Z,102138.31
2022-08-28T01:45:24.328Z,102142.28
2022-08-28T01:47:51.371Z,102140.41
2022-08-28T01:50:20.469Z,102134.38
2022-08-28T01:52:47.143Z,102133.38
2022-08-28T01:55:14.062Z,102140.44
2022-08-28T01:57:50.240Z,102140.75
2022-08-28T02:00:17.398Z,102146.25
2022-08-28T02:02:44.201Z,102142.34
2022-08-28T02:05:11.220Z,102145.25
2022-08-28T02:07:38.585Z,102143.66
2022-08-28T02:10:07.143Z,102145.78
2022-08-28T02:12:33.983Z,102144.22
2022-08-28T02:15:00.514Z,102144.75
2022-08-28T02:17:27.050Z,102152.91
2022-08-28T02:19:53.510Z,102150.06
2022-08-28T02:22:19.984Z,102152.69
2022-08-28T02:24:46.717Z,102151.66
2022-08-28T02:27:13.381Z,102155.34
2022-08-28T02:29:39.950Z,102152.47
2022-08-28T02:32:06.644Z,102153.28
2022-08-28T02:34:34.904Z,102155.13
2022-08-28T02:37:01.952Z,102150.69
2022-08-28T02:39:28.524Z,102151.75
2022-08-28T02:41:55.054Z,102149.66
2022-08-28T02:44:21.564Z,102153.34
2022-08-28T02:46:48.098Z,102155.97
2022-08-28T02:49:14.580Z,102158.06
2022-08-28T02:51:41.191Z,102158.63
2022-08-28T02:54:07.699Z,102152.34
2022-08-28T02:56:34.360Z,102152.34
2022-08-28T02:59:01.019Z,102150.53
2022-08-28T03:01:27.632Z,102151.06
2022-08-28T03:03:54.281Z,102147.94
2022-08-28T03:06:20.917Z,102156.06
2022-08-28T03:08:47.465Z,102156.63
2022-08-28T03:11:13.941Z,102159.75
2022-08-28T03:13:41.915Z,102157.69
2022-08-28T03:16:08.620Z,102163.19
2022-08-28T03:18:35.263Z,102159.81
2022-08-28T03:21:02.124Z,102164.78
2022-08-28T03:23:29.112Z,102160.88
2022-08-28T03:26:11.480Z,102166.38
2022-08-28T03:28:43.484Z,102160.88
2022-08-28T03:31:13.954Z,102166.66
2022-08-28T03:33:42.707Z,102172.19
2022-08-28T03:36:16.898Z,102168.22
2022-08-28T03:38:43.715Z,102170.34
2022-08-28T03:41:15.491Z,102168.25
2022-08-28T03:43:42.567Z,102167.75
2022-08-28T03:46:14.262Z,102171.19
2022-08-28T03:48:42.203Z,102174.06
2022-08-28T03:51:15.454Z,102167.78
2022-08-28T03:53:42.840Z,102171.44
2022-08-28T03:56:16.146Z,102177.22
2022-08-28T03:58:43.441Z,102174.09
2022-08-28T04:01:10.278Z,102176.19
2022-08-28T04:03:37.039Z,102178.28
2022-08-28T04:06:03.672Z,102187.97
2022-08-28T04:08:30.261Z,102191.91
2022-08-28T04:10:59.388Z,102192.47
2022-08-28T04:13:25.892Z,102199.78
2022-08-28T04:16:01.002Z,102201.38
2022-08-28T04:18:29.432Z,102198.22
2022-08-28T04:21:07.987Z,102191.41
2022-08-28T04:23:43.264Z,102201.13
2022-08-28T04:26:12.604Z,102196.13
2022-08-28T04:28:39.504Z,102202.41
2022-08-28T04:31:08.141Z,102211.31
2022-08-28T04:33:36.136Z,102202.16
2022-08-28T04:36:08.648Z,102203.97
2022-08-28T04:38:36.292Z,102200.56
2022-08-28T04:41:07.399Z,102199.78
2022-08-28T04:43:34.313Z,102204.53
2022-08-28T04:46:07.098Z,102204.53
2022-08-28T04:48:37.865Z,102206.63
2022-08-28T04:51:10.103Z,102208.72
2022-08-28T04:53:38.212Z,102212.88
2022-08-28T04:56:07.059Z,102219.97
2022-08-28T04:58:34.276Z,102212.88
2022-08-28T05:01:06.718Z,102211.34
2022-08-28T05:03:33.320Z,102216.31
2022-08-28T05:05:59.846Z,102221.56
2022-08-28T05:08:28.238Z,102218.94
2022-08-28T05:10:55.562Z,102224.97
2022-08-28T05:13:23.242Z,102224.97
2022-08-28T05:15:51.729Z,102223.38
2022-08-28T05:18:21.491Z,102222.88
2022-08-28T05:20:48.925Z,102225.47
2022-08-28T05:23:17.944Z,102228.59
2022-08-28T05:25:47.903Z,102231.22
2022-08-28T05:28:19.323Z,102223.63
2022-08-28T05:30:45.962Z,102227.59
2022-08-28T05:33:15.230Z,102221.28
2022-08-28T05:35:45.054Z,102235.97
2022-08-28T05:38:13.557Z,102233.88
2022-08-28T05:40:42.955Z,102235.66
2022-08-28T05:43:10.251Z,102233.56
2022-08-28T05:45:36.783Z,102237.50
2022-08-28T05:48:03.722Z,102239.56
2022-08-28T05:50:31.345Z,102243.22
2022-08-28T05:52:57.922Z,102236.81
2022-08-28T05:55:24.542Z,102239.97
2022-08-28T05:57:51.020Z,102244.44
2022-08-28T06:00:18.430Z,102243.38
2022-08-28T06:02:44.935Z,102244.66
2022-08-28T06:05:12.619Z,102250.94
2022-08-28T06:07:40.965Z,102247.44
2022-08-28T06:10:10.803Z,102254.69
2022-08-28T06:12:37.731Z,102257.75
2022-08-28T06:15:04.667Z,102256.31
2022-08-28T06:17:31.132Z,102254.13
2022-08-28T06:19:57.667Z,102253.75
2022-08-28T06:22:24.136Z,102250.09
2022-08-28T06:24:50.621Z,102249.00
2022-08-28T06:27:17.176Z,102254.88
2022-08-28T06:29:44.684Z,102260.88
2022-08-28T06:32:11.277Z,102263.75
2022-08-28T06:34:37.790Z,102258.25
2022-08-28T06:37:04.556Z,102262.28
2022-08-28T06:39:31.044Z,102253.56
2022-08-28T06:41:57.493Z,102266.28
2022-08-28T06:44:24.019Z,102265.53
2022-08-28T06:46:52.819Z,102274.53
2022-08-28T06:49:19.541Z,102269.31
2022-08-28T06:51:46.059Z,102274.44
2022-08-28T06:54:12.568Z,102272.50
2022-08-28T06:56:39.200Z,102255.31
2022-08-28T06:59:05.795Z,102260.91
2022-08-28T07:01:35.756Z,102264.41
2022-08-28T07:04:06.670Z,102269.13
2022-08-28T07:06:36.480Z,102267.25
2022-08-28T07:09:05.482Z,102278.50
2022-08-28T07:11:33.815Z,102265.66
2022-08-28T07:14:01.933Z,102270.25
2022-08-28T07:16:31.578Z,102270.50
2022-08-28T07:18:58.946Z,102276.66
2022-08-28T07:21:26.524Z,102269.41
2022-08-28T07:23:53.655Z,102277.09
2022-08-28T07:26:23.461Z,102285.03
2022-08-28T07:28:51.653Z,102287.44
2022-08-28T07:31:26.260Z,102287.28
2022-08-28T07:33:54.802Z,102281.47
2022-08-28T07:36:29.750Z,102297.09
2022-08-28T07:38:58.079Z,102290.78
2022-08-28T07:41:30.487Z,102297.38
2022-08-28T07:44:16.548Z,102294.13
2022-08-28T07:46:44.457Z,102293.72
2022-08-28T07:49:11.982Z,102289.44
2022-08-28T07:51:38.662Z,102293.56
2022-08-28T07:54:05.597Z,102292.94
2022-08-28T07:56:33.078Z,102292.81
2022-08-28T07:59:01.201Z,102288.97
2022-08-28T08:01:30.673Z,102299.50
2022-08-28T08:04:01.973Z,102301.03
2022-08-28T08:06:33.827Z,102307.66
2022-08-28T08:09:02.022Z,102309.19
2022-08-28T08:11:32.484Z,102308.13
2022-08-28T08:14:04.733Z,102311.94
2022-08-28T08:16:35.564Z,102311.13
2022-08-28T08:19:02.420Z,102308.03
2022-08-28T08:21:30.389Z,102314.75
2022-08-28T08:23:57.560Z,102312.53
2022-08-28T08:26:25.793Z,102321.53
2022-08-28T08:28:52.410Z,102316.13
2022-08-28T08:31:26.641Z,102316.66
2022-08-28T08:33:56.482Z,102317.25
2022-08-28T08:36:25.822Z,102323.97
2022-08-28T08:38:59.302Z,102324.06
2022-08-28T08:41:48.936Z,102319.69
2022-08-28T08:44:21.517Z,102309.00
2022-08-28T08:47:05.057Z,102307.50
2022-08-28T08:49:36.219Z,102306.44
2022-08-28T08:52:29.398Z,102313.06
2022-08-28T08:55:16.080Z,102313.81
2022-08-28T08:57:46.121Z,102311.63
2022-08-28T09:00:24.489Z,102309.88
2022-08-28T09:03:32.583Z,102309.22
2022-08-28T09:06:04.001Z,102305.69
2022-08-28T09:08:42.765Z,102305.91
2022-08-28T09:11:27.842Z,102312.72
2022-08-28T09:14:51.500Z,102306.22
2022-08-28T09:17:21.627Z,102309.97
2022-08-28T09:19:49.212Z,102314.91
2022-08-28T09:22:16.048Z,102316.94
2022-08-28T09:24:42.588Z,102326.34
2022-08-28T09:27:29.270Z,102315.22
2022-08-28T09:30:07.711Z,102312.44
2022-08-28T09:32:44.433Z,102305.78
2022-08-28T09:35:33.747Z,102309.13
2022-08-28T09:38:25.168Z,102321.91
2022-08-28T09:41:28.886Z,102317.59
2022-08-28T09:43:56.352Z,102309.13
2022-08-28T09:46:27.698Z,102315.81
2022-08-28T09:49:12.291Z,102313.56
2022-08-28T09:51:39.863Z,102318.03
2022-08-28T09:54:21.967Z,102318.53
2022-08-28T09:56:50.092Z,102304.13
2022-08-28T09:59:19.863Z,102310.31
2022-08-28T10:01:46.413Z,102304.22
2022-08-28T10:04:16.731Z,102315.75
2022-08-28T10:06:56.826Z,102315.94
2022-08-28T10:09:47.982Z,102321.59
2022-08-28T10:12:42.025Z,102310.25
2022-08-28T10:15:33.666Z,102324.06
2022-08-28T10:18:29.123Z,102323.06
2022-08-28T10:21:03.543Z,102304.47
2022-08-28T10:23:47.970Z,102316.53
2022-08-28T10:26:53.061Z,102316.16
2022-08-28T10:29:41.211Z,102315.38
2022-08-28T10:32:19.394Z,102310.81
2022-08-28T10:34:54.747Z,102309.97
2022-08-28T10:37:24.065Z,102313.09
2022-08-28T10:40:25.698Z,102317.59
2022-08-28T10:43:07.007Z,102321.56
2022-08-28T10:45:34.948Z,102320.03
2022-08-28T10:48:09.123Z,102322.47
2022-08-28T10:50:43.818Z,102323.56
2022-08-28T10:53:16.881Z,102320.81
2022-08-28T10:55:59.167Z,102315.78
2022-08-28T10:58:27.560Z,102326.34
2022-08-28T11:01:08.882Z,102323.13
2022-08-28T11:03:51.197Z,102316.34
2022-08-28T11:06:36.193Z,102308.34
2022-08-28T11:09:25.476Z,102305.38
2022-08-28T11:12:01.790Z,102310.06
2022-08-28T11:14:47.068Z,102314.69
2022-08-28T11:17:27.678Z,102311.59
2022-08-28T11:20:17.803Z,102317.09
2022-08-28T11:22:50.124Z,102304.22
2022-08-28T11:25:26.714Z,102317.06
2022-08-28T11:28:22.421Z,102325.38
2022-08-28T11:31:10.013Z,102324.59
2022-08-28T11:33:43.855Z,102313.81
2022-08-28T11:36:13.343Z,102323.47
2022-08-28T11:38:40.863Z,102318.59
2022-08-28T11:41:31.124Z,102312.09
2022-08-28T11:44:09.440Z,102312.56
2022-08-28T11:46:38.609Z,102313.00
2022-08-28T11:49:33.835Z,102317.34
2022-08-28T11:52:06.406Z,102317.56
2022-08-28T11:55:07.379Z,102317.53
2022-08-28T11:57:54.185Z,102312.59
2022-08-28T12:00:32.904Z,102314.59
2022-08-28T12:03:10.014Z,102309.91
2022-08-28T12:05:41.280Z,102307.25
2022-08-28T12:08:12.631Z,102321.91
2022-08-28T12:10:39.037Z,102324.16
2022-08-28T12:13:09.708Z,102318.47
2022-08-28T12:15:40.359Z,102313.78
2022-08-28T12:18:36.854Z,102318.22
2022-08-28T12:21:07.139Z,102316.63
2022-08-28T12:24:03.059Z,102319.38
2022-08-28T12:26:38.585Z,102309.34
2022-08-28T12:29:07.767Z,102323.66
2022-08-28T12:32:03.415Z,102314.03
2022-08-28T12:34:45.267Z,102315.59
2022-08-28T12:37:50.955Z,102310.69
2022-08-28T12:40:25.301Z,102300.47
2022-08-28T12:42:55.475Z,102309.59
2022-08-28T12:45:53.648Z,102304.56
2022-08-28T12:48:51.294Z,102306.06
2022-08-28T12:51:28.440Z,102308.69
2022-08-28T12:53:58.458Z,102305.59
2022-08-28T12:56:26.725Z,102306.91
2022-08-28T12:58:53.462Z,102301.00
2022-08-28T13:01:29.039Z,102299.13
2022-08-28T13:04:00.095Z,102307.75
2022-08-28T13:06:32.738Z,102301.81
2022-08-28T13:09:07.199Z,102301.78
2022-08-28T13:11:38.546Z,102301.38
2022-08-28T13:14:06.586Z,102307.50
2022-08-28T13:16:42.233Z,102294.31
2022-08-28T13:19:27.754Z,102290.28
2022-08-28T13:22:08.590Z,102290.81
2022-08-28T13:24:35.026Z,102288.19
2022-08-28T13:27:08.787Z,102293.91
2022-08-28T13:29:36.730Z,102284.63
2022-08-28T13:32:10.102Z,102300.81
2022-08-28T13:34:38.949Z,102299.75
2022-08-28T13:37:45.774Z,102298.72
2022-08-28T13:40:38.082Z,102296.13
2022-08-28T13:43:11.443Z,102292.19
2022-08-28T13:45:43.006Z,102284.13
2022-08-28T13:48:17.786Z,102298.22
2022-08-28T13:50:47.867Z,102289.41
2022-08-28T13:53:17.866Z,102294.69
2022-08-28T13:55:45.314Z,102289.69
2022-08-28T13:58:13.870Z,102293.25
2022-08-28T14:00:44.877Z,102297.41
2022-08-28T14:03:30.678Z,102290.00
2022-08-28T14:05:57.191Z,102289.81
2022-08-28T14:08:24.053Z,102284.47
2022-08-28T14:10:50.609Z,102284.81
2022-08-28T14:13:17.428Z,102288.31
2022-08-28T14:15:43.897Z,102278.72
2022-08-28T14:18:10.415Z,102274.69
2022-08-28T14:20:38.126Z,102283.75
2022-08-28T14:23:04.711Z,102287.03
2022-08-28T14:25:33.739Z,102285.63
2022-08-28T14:28:02.585Z,102289.59
2022-08-28T14:30:29.703Z,102287.81
2022-08-28T14:32:56.165Z,102281.59
2022-08-28T14:35:22.599Z,102297.94
2022-08-28T14:37:49.165Z,102289.44
2022-08-28T14:40:16.181Z,102289.97
2022-08-28T14:42:42.803Z,102288.47
2022-08-28T14:45:09.714Z,102284.56
2022-08-28T14:47:39.148Z,102284.78
2022-08-28T14:50:06.459Z,102280.97
2022-08-28T14:52:33.131Z,102292.50
2022-08-28T14:54:59.619Z,102286.47
2022-08-28T14:57:26.468Z,102282.16
2022-08-28T14:59:52.942Z,102278.03
2022-08-28T15:02:19.416Z,102281.25
2022-08-28T15:04:45.865Z,102283.03
2022-08-28T15:07:12.921Z,102284.19
2022-08-28T15:09:42.126Z,102286.59
2022-08-28T15:12:11.239Z,102280.38
2022-08-28T15:14:37.790Z,102281.06
2022-08-28T15:17:04.867Z,102283.00
2022-08-28T15:19:31.511Z,102283.88
2022-08-28T15:21:58.278Z,102276.16
2022-08-28T15:24:31.011Z,102275.13
2022-08-28T15:26:59.605Z,102270.28
2022-08-28T15:29:27.961Z,102260.28
2022-08-28T15:31:54.642Z,102271.38
2022-08-28T15:34:23.824Z,102266.28
2022-08-28T15:36:55.881Z,102272.38
2022-08-28T15:39:45.823Z,102276.69
2022-08-28T15:42:12.557Z,102269.31
2022-08-28T15:44:39.425Z,102273.44
2022-08-28T15:47:06.345Z,102274.63
2022-08-28T15:49:38.869Z,102265.97
2022-08-28T15:52:15.147Z,102261.78
2022-08-28T15:54:41.666Z,102260.56
2022-08-28T15:57:08.154Z,102260.56
2022-08-28T15:59:48.863Z,102270.44
2022-08-28T16:02:21.800Z,102263.66
2022-08-28T16:04:48.865Z,102274.84
2022-08-28T16:07:15.728Z,102267.06
2022-08-28T16:09:42.184Z,102262.78
2022-08-28T16:12:08.850Z,102265.44
2022-08-28T16:14:35.380Z,102271.59
2022-08-28T16:17:47.098Z,102274.00
2022-08-28T16:19:48.853Z,102274.31
2022-08-28T16:22:16.356Z,102271.66
2022-08-28T16:24:43.861Z,102269.63
2022-08-28T16:27:14.592Z,102269.03
2022-08-28T16:29:41.834Z,102265.16
2022-08-28T16:32:09.609Z,102266.13
2022-08-28T16:34:38.483Z,102273.94
2022-08-28T16:37:06.174Z,102267.78
2022-08-28T16:39:34.574Z,102268.53
2022-08-28T16:42:01.086Z,102272.88
2022-08-28T16:44:27.897Z,102272.78
2022-08-28T16:46:55.758Z,102271.66
2022-08-28T16:49:23.568Z,102273.22
2022-08-28T16:51:50.696Z,102276.06
2022-08-28T16:54:21.520Z,102270.28
2022-08-28T16:56:48.077Z,102273.44
2022-08-28T16:59:20.517Z,102262.50
2022-08-28T17:01:53.928Z,102271.41
2022-08-28T17:04:21.576Z,102272.69
2022-08-28T17:06:48.289Z,102269.88
2022-08-28T17:09:14.785Z,102271.31
2022-08-28T17:11:41.285Z,102280.03
2022-08-28T17:14:09.052Z,102274.28
2022-08-28T17:16:35.673Z,102275.34
2022-08-28T17:19:02.331Z,102276.78
2022-08-28T17:21:47.550Z,102273.84
2022-08-28T17:24:14.055Z,102270.09
2022-08-28T17:26:42.372Z,102270.91
2022-08-28T17:29:09.068Z,102269.81
2022-08-28T17:31:35.842Z,102272.34
2022-08-28T17:34:02.430Z,102270.00
2022-08-28T17:36:33.402Z,102280.47
2022-08-28T17:39:02.667Z,102277.19
2022-08-28T17:41:29.206Z,102276.38
2022-08-28T17:43:55.766Z,102278.88
2022-08-28T17:46:22.556Z,102279.00
2022-08-28T17:48:54.484Z,102278.06
2022-08-28T17:51:33.207Z,102277.59
2022-08-28T17:54:10.812Z,102275.72
2022-08-28T17:56:37.426Z,102276.34
2022-08-28T17:59:04.772Z,102281.50
2022-08-28T18:01:31.398Z,102278.81
2022-08-28T18:03:57.909Z,102271.78
2022-08-28T18:06:24.990Z,102285.16
2022-08-28T18:08:51.926Z,102272.09
2022-08-28T18:11:19.144Z,102276.25
2022-08-28T18:13:46.302Z,102275.63
2022-08-28T18:16:12.921Z,102268.31
2022-08-28T18:18:39.582Z,102268.72
2022-08-28T18:21:06.180Z,102272.31
2022-08-28T18:23:32.839Z,102273.50
2022-08-28T18:25:59.339Z,102273.94
2022-08-28T18:28:26.652Z,102273.59
2022-08-28T18:30:53.848Z,102270.28
2022-08-28T18:33:22.893Z,102273.09
2022-08-28T18:35:51.361Z,102273.81
2022-08-28T18:38:19.670Z,102276.28
2022-08-28T18:40:47.848Z,102279.84
2022-08-28T18:43:14.700Z,102278.09
2022-08-28T18:45:41.242Z,102281.34
2022-08-28T18:48:10.612Z,102284.13
2022-08-28T18:50:38.019Z,102289.25
2022-08-28T18:53:05.276Z,102284.06
2022-08-28T18:55:32.521Z,102292.28
2022-08-28T18:58:00.860Z,102298.00
2022-08-28T19:00:28.120Z,102292.81
2022-08-28T19:02:54.853Z,102294.03
2022-08-28T19:05:22.059Z,102297.28
2022-08-28T19:07:49.413Z,102299.94
2022-08-28T19:10:32.621Z,102292.88
2022-08-28T19:13:00.823Z,102309.59
2022-08-28T19:15:28.232Z,102307.09
2022-08-28T19:17:54.881Z,102321.38
2022-08-28T19:20:21.503Z,102305.81
2022-08-28T19:22:48.827Z,102315.72
2022-08-28T19:25:28.277Z,102316.13
2022-08-28T19:28:00.149Z,102312.22
2022-08-28T19:30:31.096Z,102318.88
2022-08-28T19:32:57.632Z,102313.88
2022-08-28T19:35:24.796Z,102315.84
2022-08-28T19:37:54.785Z,102319.88
2022-08-28T19:40:22.236Z,102316.25
2022-08-28T19:42:50.057Z,102323.97
2022-08-28T19:45:17.859Z,102322.22
2022-08-28T19:47:44.867Z,102325.94
2022-08-28T19:50:13.925Z,102325.75
2022-08-28T19:52:41.582Z,102329.47
2022-08-28T19:55:08.730Z,102333.97
2022-08-28T19:57:35.570Z,102343.56
2022-08-28T20:00:03.614Z,102345.50
2022-08-28T20:02:30.124Z,102346.56
2022-08-28T20:04:56.739Z,102346.09
2022-08-28T20:07:24.761Z,102348.25
2022-08-28T20:09:51.993Z,102347.47
2022-08-28T20:12:18.524Z,102350.38
2022-08-28T20:14:45.610Z,102351.75
2022-08-28T20:17:12.142Z,102350.78
2022-08-28T20:19:38.999Z,102351.84
2022-08-28T20:22:05.651Z,102344.53
2022-08-28T20:24:32.314Z,102341.97
2022-08-28T20:26:58.795Z,102347.25
2022-08-28T20:29:25.662Z,102354.66
2022-08-28T20:31:52.817Z,102356.03
2022-08-28T20:34:20.364Z,102357.41
2022-08-28T20:36:47.581Z,102356.44
2022-08-28T20:39:15.482Z,102352.47
2022-08-28T20:41:44.420Z,102362.03
2022-08-28T20:44:13.031Z,102365.00
2022-08-28T20:46:42.208Z,102364.56
2022-08-28T20:49:10.612Z,102367.97
2022-08-28T20:51:55.718Z,102362.53
2022-08-28T20:54:29.254Z,102373.16
2022-08-28T20:56:57.696Z,102377.16
2022-08-28T20:59:27.262Z,102376.44
2022-08-28T21:02:01.005Z,102378.66
2022-08-28T21:04:31.123Z,102380.28
2022-08-28T21:06:57.774Z,102387.81
2022-08-28T21:09:58.156Z,102387.31
2022-08-28T21:12:12.508Z,102388.34
2022-08-28T21:14:39.026Z,102390.00
2022-08-28T21:17:06.007Z,102400.53
2022-08-28T21:19:34.453Z,102405.31
2022-08-28T21:22:06.326Z,102395.84
2022-08-28T21:24:33.796Z,102398.78
2022-08-28T21:27:00.231Z,102396.63
2022-08-28T21:29:26.698Z,102394.88
2022-08-28T21:31:53.474Z,102398.56
2022-08-28T21:34:21.575Z,102405.41
2022-08-28T21:36:50.616Z,102404.41
2022-08-28T21:39:20.519Z,102410.25
2022-08-28T21:41:47.717Z,102411.03
2022-08-28T21:44:14.430Z,102405.75
2022-08-28T21:46:40.899Z,102408.09
2022-08-28T21:49:07.603Z,102410.19
2022-08-28T21:51:34.108Z,102409.88
2022-08-28T21:54:00.707Z,102401.19
2022-08-28T21:56:27.877Z,102410.38
2022-08-28T21:58:56.085Z,102395.91
2022-08-28T22:01:26.511Z,102403.28
2022-08-28T22:03:54.433Z,102410.88
2022-08-28T22:06:23.003Z,102398.78
2022-08-28T22:08:50.659Z,102409.88
2022-08-28T22:11:19.971Z,102411.25
2022-08-28T22:13:51.625Z,102411.81
2022-08-28T22:16:18.446Z,102412.38
2022-08-28T22:18:45.045Z,102409.81
2022-08-28T22:21:36.754Z,102406.97
2022-08-28T22:24:03.986Z,102410.94
2022-08-28T22:26:30.524Z,102413.66
2022-08-28T22:28:57.927Z,102405.22
2022-08-28T22:31:24.694Z,102409.50
2022-08-28T22:33:52.124Z,102410.06
2022-08-28T22:36:19.916Z,102408.00
2022-08-28T22:38:53.143Z,102410.19
2022-08-28T22:41:20.741Z,102405.22
2022-08-28T22:43:49.711Z,102403.44
2022-08-28T22:46:18.778Z,102406.13
2022-08-28T22:48:46.056Z,102412.25
2022-08-28T22:51:15.172Z,102399.09
2022-08-28T22:53:43.238Z,102413.41
2022-08-28T22:56:11.220Z,102406.84
2022-08-28T22:58:38.022Z,102398.22
2022-08-28T23:01:10.662Z,102404.31
2022-08-28T23:03:37.484Z,102403.31
2022-08-28T23:06:04.436Z,102397.81
2022-08-28T23:08:34.014Z,102395.19
2022-08-28T23:11:01.141Z,102394.19
2022-08-28T23:13:28.345Z,102388.22
2022-08-28T23:15:54.828Z,102388.75
2022-08-28T23:18:21.734Z,102394.06
2022-08-28T23:20:50.726Z,102391.47
2022-08-28T23:23:18.899Z,102388.88
2022-08-28T23:25:46.041Z,102388.66
2022-08-28T23:28:13.228Z,102388.19
2022-08-28T23:30:41.274Z,102383.75
2022-08-28T23:33:19.732Z,102389.28
2022-08-28T23:35:50.115Z,102386.91
2022-08-28T23:38:16.779Z,102384.88
2022-08-28T23:40:44.258Z,102384.63
2022-08-28T23:43:11.194Z,102376.50
2022-08-28T23:45:40.405Z,102379.66
2022-08-28T23:48:07.476Z,102373.91
2022-08-28T23:50:34.796Z,102369.22
2022-08-28T23:53:01.473Z,102372.38
2022-08-28T23:55:28.132Z,102371.66
2022-08-28T23:57:54.644Z,102371.41
